Time;durP1;ratioP1;P1;durP2;ratioP2;P2;SDS_P1;SDS_P2;PMS_P1;PMS_P2;Temp;Humidity;BMP_temperature;BMP_pressure;BME280_temperature;BME280_humidity;BME280_pressure;Samples;Min_cycle;Max_cycle;Signal;HPM_P1;HPM_P2
2022/04/24 00:00:04;;;;;;;12.13;3.40;;;;;;;;;;5034846;28;20108;-67
2022/04/24 00:02:33;;;;;;;9.32;3.83;;;;;;;;;;5036448;28;20386;-67
2022/04/24 00:04:59;;;;;;;11.45;2.95;;;;;;;;;;5041835;28;20033;-67
2022/04/24 00:07:25;;;;;;;8.93;3.20;;;;;;;;;;5043507;28;20491;-68
2022/04/24 00:09:50;;;;;;;10.80;2.75;;;;;;;;;;5039318;28;20039;-67
2022/04/24 00:12:17;;;;;;;11.90;2.92;;;;;;;;;;5036076;28;20099;-68
2022/04/24 00:14:45;;;;;;;13.20;2.95;;;;;;;;;;5043166;28;20033;-68
2022/04/24 00:17:12;;;;;;;10.00;2.38;;;;;;;;;;5035903;28;20104;-68
2022/04/24 00:19:38;;;;;;;13.27;3.08;;;;;;;;;;5037180;28;20620;-67
2022/04/24 00:22:04;;;;;;;13.88;4.18;;;;;;;;;;5037510;28;20128;-68
2022/04/24 00:24:32;;;;;;;11.60;2.67;;;;;;;;;;5039031;28;20035;-68
2022/04/24 00:26:58;;;;;;;9.07;2.83;;;;;;;;;;5039259;28;20079;-68
2022/04/24 00:29:24;;;;;;;8.38;3.20;;;;;;;;;;5039965;28;20040;-68
2022/04/24 00:31:50;;;;;;;12.55;3.10;;;;;;;;;;5037223;28;20029;-67
2022/04/24 00:34:16;;;;;;;10.70;3.03;;;;;;;;;;5042228;28;20037;-67
2022/04/24 00:36:43;;;;;;;15.80;3.33;;;;;;;;;;5040494;28;20026;-68
2022/04/24 00:39:09;;;;;;;11.55;3.17;;;;;;;;;;5040335;28;20112;-67
2022/04/24 00:41:43;;;;;;;10.77;2.97;;;;;;;;;;5040766;28;20107;-68
2022/04/24 00:44:09;;;;;;;5.85;2.28;;;;;;;;;;5039304;28;20381;-68
2022/04/24 00:46:40;;;;;;;7.28;2.63;;;;;;;;;;5034321;28;20104;-68
2022/04/24 00:49:09;;;;;;;6.70;2.80;;;;;;;;;;5041234;28;20051;-67
2022/04/24 00:51:37;;;;;;;13.20;3.45;;;;;;;;;;5038447;28;20111;-68
2022/04/24 00:54:07;;;;;;;9.85;2.67;;;;;;;;;;5038056;28;20040;-68
2022/04/24 00:56:34;;;;;;;5.57;2.20;;;;;;;;;;5041023;28;20052;-67
2022/04/24 00:59:03;;;;;;;10.60;2.53;;;;;;;;;;5037143;28;20394;-68
2022/04/24 01:01:29;;;;;;;15.52;3.72;;;;;;;;;;5037223;28;20029;-68
2022/04/24 01:04:00;;;;;;;10.27;2.33;;;;;;;;;;5042470;28;20091;-68
2022/04/24 01:06:28;;;;;;;11.25;2.00;;;;;;;;;;5035855;28;20041;-68
2022/04/24 01:08:54;;;;;;;6.65;2.28;;;;;;;;;;5035563;28;20474;-68
2022/04/24 01:11:19;;;;;;;9.32;2.15;;;;;;;;;;5035712;28;20033;-68
2022/04/24 01:13:45;;;;;;;4.20;1.83;;;;;;;;;;5039287;28;20032;-67
2022/04/24 01:16:11;;;;;;;3.88;1.70;;;;;;;;;;5035809;28;20025;-68
2022/04/24 01:18:38;;;;;;;6.13;1.65;;;;;;;;;;5035440;28;20060;-68
2022/04/24 01:21:08;;;;;;;14.38;2.40;;;;;;;;;;5042040;28;20087;-64
2022/04/24 01:23:34;;;;;;;6.25;1.73;;;;;;;;;;5037032;28;20591;-68
2022/04/24 01:25:59;;;;;;;10.57;2.05;;;;;;;;;;5034243;28;20521;-68
2022/04/24 01:28:25;;;;;;;5.15;1.98;;;;;;;;;;5037831;28;20083;-67
2022/04/24 01:30:51;;;;;;;5.90;1.80;;;;;;;;;;5036361;28;20032;-68
2022/04/24 01:33:17;;;;;;;7.45;2.25;;;;;;;;;;5037046;28;20029;-68
2022/04/24 01:35:43;;;;;;;9.70;1.90;;;;;;;;;;5037750;28;20068;-68
2022/04/24 01:38:08;;;;;;;8.35;2.35;;;;;;;;;;5036192;28;20064;-68
2022/04/24 01:40:34;;;;;;;10.63;2.03;;;;;;;;;;5040106;28;20394;-67
2022/04/24 01:42:59;;;;;;;13.75;2.00;;;;;;;;;;5035949;28;20034;-68
2022/04/24 01:45:25;;;;;;;8.20;2.55;;;;;;;;;;5035806;28;20033;-68
2022/04/24 01:47:50;;;;;;;7.10;1.92;;;;;;;;;;5037978;28;20398;-67
2022/04/24 01:50:16;;;;;;;7.68;2.05;;;;;;;;;;5035038;28;20148;-68
2022/04/24 01:52:42;;;;;;;9.82;1.58;;;;;;;;;;5032959;28;20488;-68
2022/04/24 01:55:07;;;;;;;11.32;1.85;;;;;;;;;;5040685;28;20185;-67
2022/04/24 01:57:33;;;;;;;7.22;1.73;;;;;;;;;;5033228;28;20025;-68
2022/04/24 01:59:59;;;;;;;7.75;2.00;;;;;;;;;;5037608;28;20033;-68
2022/04/24 02:02:24;;;;;;;8.90;1.48;;;;;;;;;;5033897;28;20029;-66
2022/04/24 02:04:50;;;;;;;7.13;1.70;;;;;;;;;;5046159;28;20037;-68
2022/04/24 02:07:15;;;;;;;10.20;1.88;;;;;;;;;;5039536;28;20082;-68
2022/04/24 02:09:41;;;;;;;6.43;1.75;;;;;;;;;;5067581;28;20513;-67
2022/04/24 02:12:07;;;;;;;4.70;1.80;;;;;;;;;;5036579;28;20040;-68
2022/04/24 02:14:33;;;;;;;7.05;1.90;;;;;;;;;;5032579;28;20497;-67
2022/04/24 02:16:58;;;;;;;4.40;1.73;;;;;;;;;;5037270;28;20048;-67
2022/04/24 02:19:24;;;;;;;7.47;1.95;;;;;;;;;;5040661;28;20075;-67
2022/04/24 02:21:50;;;;;;;3.17;1.33;;;;;;;;;;5034877;28;20033;-67
2022/04/24 02:24:16;;;;;;;6.45;1.58;;;;;;;;;;5037985;28;20083;-67
2022/04/24 02:26:42;;;;;;;9.38;2.10;;;;;;;;;;5037115;28;20464;-67
2022/04/24 02:29:07;;;;;;;3.65;1.65;;;;;;;;;;5033463;28;20059;-67
2022/04/24 02:31:33;;;;;;;5.22;1.67;;;;;;;;;;5036666;28;20075;-67
2022/04/24 02:33:59;;;;;;;8.90;2.00;;;;;;;;;;5036666;28;20029;-67
2022/04/24 02:36:24;;;;;;;5.75;1.88;;;;;;;;;;5037566;28;20086;-66
2022/04/24 02:38:50;;;;;;;12.43;1.77;;;;;;;;;;5037014;28;20435;-67
2022/04/24 02:41:16;;;;;;;6.63;1.73;;;;;;;;;;5037075;28;20526;-67
2022/04/24 02:43:42;;;;;;;5.68;1.80;;;;;;;;;;5036056;28;20024;-67
2022/04/24 02:46:07;;;;;;;5.95;1.63;;;;;;;;;;5035999;28;20394;-66
2022/04/24 02:48:33;;;;;;;7.90;1.80;;;;;;;;;;5037351;28;20030;-67
2022/04/24 02:50:59;;;;;;;16.25;2.00;;;;;;;;;;5034280;28;20394;-67
2022/04/24 02:53:25;;;;;;;8.63;1.58;;;;;;;;;;5035109;28;20041;-67
2022/04/24 02:55:50;;;;;;;9.02;2.60;;;;;;;;;;5034562;28;20036;-67
2022/04/24 02:58:16;;;;;;;5.38;1.75;;;;;;;;;;5042754;28;20398;-67
2022/04/24 03:00:49;;;;;;;5.65;1.92;;;;;;;;;;5036760;28;20037;-67
2022/04/24 03:03:18;;;;;;;6.10;1.42;;;;;;;;;;5039137;28;20397;-67
2022/04/24 03:05:45;;;;;;;7.38;1.48;;;;;;;;;;5034748;28;20482;-62
2022/04/24 03:08:11;;;;;;;7.53;1.73;;;;;;;;;;5033343;28;20474;-67
2022/04/24 03:10:38;;;;;;;8.90;1.52;;;;;;;;;;5035325;28;20032;-66
2022/04/24 03:13:03;;;;;;;8.82;2.03;;;;;;;;;;5039042;28;20052;-67
2022/04/24 03:15:29;;;;;;;9.25;1.88;;;;;;;;;;5034955;28;20548;-67
2022/04/24 03:17:55;;;;;;;10.23;1.67;;;;;;;;;;5034710;28;20032;-67
2022/04/24 03:20:22;;;;;;;21.77;4.80;;;;;;;;;;5032481;28;20451;-67
2022/04/24 03:22:51;;;;;;;5.07;1.55;;;;;;;;;;5034393;28;20045;-66
2022/04/24 03:25:17;;;;;;;7.15;1.65;;;;;;;;;;5040037;28;20044;-66
2022/04/24 03:27:43;;;;;;;5.97;1.77;;;;;;;;;;5043355;28;20044;-67
2022/04/24 03:30:09;;;;;;;8.63;1.60;;;;;;;;;;5036897;28;20025;-66
2022/04/24 03:32:35;;;;;;;7.75;1.58;;;;;;;;;;5036671;28;20045;-67
2022/04/24 03:35:03;;;;;;;5.57;1.67;;;;;;;;;;5043314;28;20112;-66
2022/04/24 03:37:29;;;;;;;15.20;2.28;;;;;;;;;;5041944;28;20032;-66
2022/04/24 03:39:56;;;;;;;7.05;1.60;;;;;;;;;;5042909;28;20051;-67
2022/04/24 03:42:21;;;;;;;4.32;1.80;;;;;;;;;;5038056;28;20021;-67
2022/04/24 03:44:47;;;;;;;11.63;1.80;;;;;;;;;;5040325;28;20029;-67
2022/04/24 03:47:14;;;;;;;9.45;2.17;;;;;;;;;;5035709;28;20039;-67
2022/04/24 03:49:40;;;;;;;6.32;2.03;;;;;;;;;;5040126;28;20469;-67
2022/04/24 03:52:07;;;;;;;5.78;1.55;;;;;;;;;;5039235;28;20044;-67
2022/04/24 03:54:32;;;;;;;4.10;1.70;;;;;;;;;;5035486;28;20132;-67
2022/04/24 03:56:58;;;;;;;8.10;2.25;;;;;;;;;;5035522;28;20100;-66
2022/04/24 03:59:24;;;;;;;7.30;2.03;;;;;;;;;;5035808;28;20397;-67
2022/04/24 04:01:49;;;;;;;12.02;1.92;;;;;;;;;;5035646;28;20603;-67
2022/04/24 04:04:16;;;;;;;14.98;2.42;;;;;;;;;;5036136;28;20076;-67
2022/04/24 04:06:41;;;;;;;7.75;2.78;;;;;;;;;;5045244;28;21012;-67
2022/04/24 04:09:07;;;;;;;14.05;2.33;;;;;;;;;;5038638;28;20420;-66
2022/04/24 04:11:33;;;;;;;11.27;2.05;;;;;;;;;;5038109;28;20508;-67
2022/04/24 04:13:58;;;;;;;8.05;1.63;;;;;;;;;;5038251;28;20595;-67
2022/04/24 04:16:24;;;;;;;5.82;2.13;;;;;;;;;;5043946;28;20021;-64
2022/04/24 04:18:49;;;;;;;9.73;2.50;;;;;;;;;;5037688;28;20520;-67
2022/04/24 04:21:15;;;;;;;7.85;1.90;;;;;;;;;;5041193;28;20067;-67
2022/04/24 04:23:41;;;;;;;13.75;1.80;;;;;;;;;;5038975;28;20021;-67
2022/04/24 04:26:06;;;;;;;4.97;1.55;;;;;;;;;;5037314;28;20029;-66
2022/04/24 04:28:32;;;;;;;9.27;2.08;;;;;;;;;;5037796;28;20541;-66
2022/04/24 04:30:58;;;;;;;10.98;2.53;;;;;;;;;;5039487;28;20033;-66
2022/04/24 04:33:24;;;;;;;8.00;1.98;;;;;;;;;;5037141;28;20051;-66
2022/04/24 04:35:49;;;;;;;5.70;1.88;;;;;;;;;;5038736;28;20035;-66
2022/04/24 04:38:15;;;;;;;4.70;1.77;;;;;;;;;;5042400;28;20416;-66
2022/04/24 04:40:41;;;;;;;6.05;1.85;;;;;;;;;;5037621;28;20037;-66
2022/04/24 04:43:07;;;;;;;6.78;1.88;;;;;;;;;;5040793;28;20034;-66
2022/04/24 04:45:33;;;;;;;4.50;1.52;;;;;;;;;;5038651;28;20079;-66
2022/04/24 04:47:59;;;;;;;8.00;1.60;;;;;;;;;;5034748;28;20128;-66
2022/04/24 04:50:24;;;;;;;11.15;1.73;;;;;;;;;;5036199;28;20028;-60
2022/04/24 04:52:50;;;;;;;6.97;1.58;;;;;;;;;;5036912;28;20422;-66
2022/04/24 04:55:16;;;;;;;7.07;1.45;;;;;;;;;;5039675;28;20037;-66
2022/04/24 04:57:42;;;;;;;6.72;1.60;;;;;;;;;;5039830;28;20025;-66
2022/04/24 05:00:08;;;;;;;5.22;2.05;;;;;;;;;;5036060;28;20033;-66
2022/04/24 05:02:38;;;;;;;12.57;3.03;;;;;;;;;;5036693;28;20037;-67
2022/04/24 05:05:05;;;;;;;5.15;2.10;;;;;;;;;;5036460;28;20034;-68
2022/04/24 05:07:31;;;;;;;7.72;1.58;;;;;;;;;;5036302;28;20049;-68
2022/04/24 05:09:57;;;;;;;9.00;2.20;;;;;;;;;;5037286;28;20095;-69
2022/04/24 05:12:28;;;;;;;10.18;2.03;;;;;;;;;;5039790;28;20498;-69
2022/04/24 05:15:00;;;;;;;9.30;2.35;;;;;;;;;;5035326;28;20105;-69
2022/04/24 05:17:27;;;;;;;;;;;;;;;;;;5040372;28;20048;-69
2022/04/24 05:19:53;;;;;;;7.40;1.85;;;;;;;;;;5036267;28;20305;-69
2022/04/24 05:22:19;;;;;;;4.20;1.92;;;;;;;;;;5040411;28;20033;-68
2022/04/24 05:24:44;;;;;;;6.07;1.83;;;;;;;;;;5037899;28;20037;-67
2022/04/24 05:27:10;;;;;;;7.43;1.70;;;;;;;;;;5040570;28;20112;-67
2022/04/24 05:29:36;;;;;;;8.82;2.00;;;;;;;;;;5055268;28;20044;-68
2022/04/24 05:32:02;;;;;;;5.15;1.77;;;;;;;;;;5039353;28;20029;-68
2022/04/24 05:34:28;;;;;;;4.00;1.40;;;;;;;;;;5045093;28;20109;-68
2022/04/24 05:36:53;;;;;;;5.70;1.83;;;;;;;;;;5039740;28;20442;-68
2022/04/24 05:39:19;;;;;;;6.13;1.58;;;;;;;;;;5052297;28;20044;-67
2022/04/24 05:41:45;;;;;;;7.93;1.83;;;;;;;;;;5036605;28;20047;-66
2022/04/24 05:44:11;;;;;;;5.13;2.38;;;;;;;;;;5034723;28;20390;-66
2022/04/24 05:46:36;;;;;;;4.63;2.90;;;;;;;;;;5033300;28;20391;-67
2022/04/24 05:49:02;;;;;;;7.35;3.75;;;;;;;;;;5039651;28;20035;-67
2022/04/24 05:51:29;;;;;;;13.18;4.97;;;;;;;;;;5034654;28;20026;-66
2022/04/24 05:53:54;;;;;;;5.70;5.07;;;;;;;;;;5036220;28;20060;-67
2022/04/24 05:56:21;;;;;;;8.38;4.82;;;;;;;;;;5034869;28;20060;-66
2022/04/24 05:58:46;;;;;;;9.57;5.18;;;;;;;;;;5035635;28;20033;-67
2022/04/24 06:01:13;;;;;;;5.78;4.45;;;;;;;;;;5038403;28;20060;-66
2022/04/24 06:03:41;;;;;;;4.60;4.03;;;;;;;;;;5037591;28;20033;-67
2022/04/24 06:06:07;;;;;;;7.80;4.38;;;;;;;;;;5038598;28;20036;-66
2022/04/24 06:08:33;;;;;;;5.65;4.20;;;;;;;;;;5037514;28;20029;-66
2022/04/24 06:10:58;;;;;;;5.97;4.15;;;;;;;;;;5047813;28;20036;-66
2022/04/24 06:13:24;;;;;;;4.75;3.80;;;;;;;;;;5040717;28;20045;-67
2022/04/24 06:15:52;;;;;;;7.72;3.67;;;;;;;;;;5041254;28;20111;-66
2022/04/24 06:18:18;;;;;;;8.95;3.65;;;;;;;;;;5035731;28;20033;-67
2022/04/24 06:20:44;;;;;;;6.45;3.90;;;;;;;;;;5036057;28;20045;-67
2022/04/24 06:23:10;;;;;;;6.72;4.10;;;;;;;;;;5032390;28;20029;-67
2022/04/24 06:25:36;;;;;;;7.88;3.42;;;;;;;;;;5033491;28;20526;-67
2022/04/24 06:28:03;;;;;;;7.40;3.65;;;;;;;;;;5037136;28;20025;-67
2022/04/24 06:30:31;;;;;;;3.92;3.63;;;;;;;;;;5036794;28;20601;-67
2022/04/24 06:32:57;;;;;;;5.57;3.53;;;;;;;;;;5034070;28;20528;-67
2022/04/24 06:35:24;;;;;;;13.98;3.25;;;;;;;;;;5035788;28;20525;-68
2022/04/24 06:37:55;;;;;;;3.00;2.70;;;;;;;;;;5033121;28;21164;-67
2022/04/24 06:40:23;;;;;;;4.38;2.75;;;;;;;;;;5033321;28;20475;-67
2022/04/24 06:42:58;;;;;;;4.13;2.00;;;;;;;;;;5037537;28;20500;-66
2022/04/24 06:45:41;;;;;;;3.30;2.65;;;;;;;;;;5035912;28;20583;-67
2022/04/24 06:48:11;;;;;;;4.97;2.08;;;;;;;;;;5042260;28;20040;-66
2022/04/24 06:50:42;;;;;;;1.88;1.60;;;;;;;;;;5039909;28;20036;-67
2022/04/24 06:53:11;;;;;;;5.75;1.70;;;;;;;;;;5035730;28;20045;-67
2022/04/24 06:55:42;;;;;;;2.70;1.60;;;;;;;;;;5042030;28;20051;-67
2022/04/24 06:58:09;;;;;;;6.13;2.17;;;;;;;;;;5037641;28;20040;-67
2022/04/24 07:00:37;;;;;;;5.00;2.10;;;;;;;;;;5035361;28;20036;-67
2022/04/24 07:03:10;;;;;;;4.20;2.25;;;;;;;;;;5034043;28;20028;-67
2022/04/24 07:05:36;;;;;;;2.10;1.90;;;;;;;;;;5034812;28;20025;-67
2022/04/24 07:08:02;;;;;;;3.58;2.10;;;;;;;;;;5037978;28;20532;-67
2022/04/24 07:10:28;;;;;;;4.63;1.90;;;;;;;;;;5036668;28;20116;-67
2022/04/24 07:12:54;;;;;;;1.85;1.63;;;;;;;;;;5036982;28;20063;-67
2022/04/24 07:15:22;;;;;;;3.70;2.03;;;;;;;;;;5069218;28;20100;-67
2022/04/24 07:17:49;;;;;;;2.95;1.80;;;;;;;;;;5038768;28;20108;-67
2022/04/24 07:20:16;;;;;;;4.30;2.15;;;;;;;;;;5037442;28;20036;-67
2022/04/24 07:22:46;;;;;;;4.38;1.80;;;;;;;;;;5038111;28;20359;-67
2022/04/24 07:25:16;;;;;;;5.78;1.90;;;;;;;;;;5040671;28;20103;-67
2022/04/24 07:27:43;;;;;;;4.22;2.13;;;;;;;;;;5067717;28;20029;-67
2022/04/24 07:30:13;;;;;;;2.28;2.08;;;;;;;;;;5038963;28;20025;-67
2022/04/24 07:32:52;;;;;;;2.20;1.55;;;;;;;;;;5038365;28;20032;-68
2022/04/24 07:35:20;;;;;;;1.92;1.73;;;;;;;;;;5042150;28;20032;-67
2022/04/24 07:37:47;;;;;;;3.95;1.67;;;;;;;;;;5039767;28;20017;-66
2022/04/24 07:40:14;;;;;;;3.15;1.70;;;;;;;;;;5038355;28;20030;-67
2022/04/24 07:43:00;;;;;;;4.25;1.80;;;;;;;;;;5036570;28;20474;-67
2022/04/24 07:45:33;;;;;;;1.10;1.00;;;;;;;;;;5035167;28;20037;-68
2022/04/24 07:48:00;;;;;;;3.15;0.98;;;;;;;;;;5038469;28;20033;-67
2022/04/24 07:50:28;;;;;;;3.15;1.40;;;;;;;;;;5037784;28;20052;-67
2022/04/24 07:52:54;;;;;;;2.05;0.93;;;;;;;;;;5030507;28;20530;-67
2022/04/24 07:55:22;;;;;;;1.40;0.75;;;;;;;;;;5039519;28;20120;-67
2022/04/24 07:57:50;;;;;;;3.40;0.60;;;;;;;;;;5038093;28;20449;-68
2022/04/24 08:00:17;;;;;;;1.90;0.80;;;;;;;;;;5039853;28;20037;-67
2022/04/24 08:02:49;;;;;;;0.57;0.57;;;;;;;;;;5033559;28;20040;-68
2022/04/24 08:05:25;;;;;;;0.65;0.60;;;;;;;;;;5033700;28;20086;-68
2022/04/24 08:07:52;;;;;;;0.55;0.40;;;;;;;;;;5035312;28;20055;-67
2022/04/24 08:10:19;;;;;;;1.85;0.47;;;;;;;;;;5036257;28;20164;-68
2022/04/24 08:12:45;;;;;;;1.48;0.70;;;;;;;;;;5039003;28;20034;-68
2022/04/24 08:15:11;;;;;;;0.93;0.60;;;;;;;;;;5038675;28;20021;-68
2022/04/24 08:17:38;;;;;;;1.02;0.60;;;;;;;;;;5039354;28;20532;-68
2022/04/24 08:20:05;;;;;;;1.75;0.68;;;;;;;;;;5035053;28;20033;-67
2022/04/24 08:22:37;;;;;;;4.22;0.68;;;;;;;;;;5039072;28;20029;-67
2022/04/24 08:25:04;;;;;;;1.52;0.60;;;;;;;;;;5041064;28;20030;-67
2022/04/24 08:27:29;;;;;;;0.50;0.50;;;;;;;;;;5035018;28;20029;-68
2022/04/24 08:29:55;;;;;;;3.20;0.50;;;;;;;;;;5039004;28;20504;-67
2022/04/24 08:32:24;;;;;;;3.70;0.73;;;;;;;;;;5040930;28;20037;-68
2022/04/24 08:34:50;;;;;;;1.60;0.57;;;;;;;;;;5035890;28;20754;-68
2022/04/24 08:37:16;;;;;;;1.83;0.70;;;;;;;;;;5038504;28;20044;-67
2022/04/24 08:39:42;;;;;;;2.10;0.77;;;;;;;;;;5042941;28;20033;-67
2022/04/24 08:42:09;;;;;;;0.75;0.55;;;;;;;;;;5039733;28;20033;-68
2022/04/24 08:44:38;;;;;;;0.60;0.60;;;;;;;;;;5036374;28;20029;-67
2022/04/24 08:47:06;;;;;;;2.13;0.60;;;;;;;;;;5037926;28;20791;-67
2022/04/24 08:49:33;;;;;;;1.23;0.60;;;;;;;;;;5035778;28;20078;-67
2022/04/24 08:52:00;;;;;;;1.73;0.93;;;;;;;;;;5038947;28;20045;-68
2022/04/24 08:54:27;;;;;;;1.48;0.75;;;;;;;;;;5040187;28;20509;-67
2022/04/24 08:56:56;;;;;;;1.75;0.50;;;;;;;;;;5038413;28;20040;-68
2022/04/24 08:59:22;;;;;;;2.17;0.50;;;;;;;;;;5039512;28;20102;-68
2022/04/24 09:01:50;;;;;;;2.15;0.57;;;;;;;;;;5035003;28;20031;-67
2022/04/24 09:04:16;;;;;;;1.23;0.70;;;;;;;;;;5036501;28;20025;-67
2022/04/24 09:06:42;;;;;;;1.70;0.50;;;;;;;;;;5041580;28;20167;-67
2022/04/24 09:09:08;;;;;;;2.97;0.63;;;;;;;;;;5044336;28;20116;-67
2022/04/24 09:11:34;;;;;;;2.75;0.60;;;;;;;;;;5034045;28;20452;-67
2022/04/24 09:14:24;;;;;;;2.20;0.82;;;;;;;;;;5034737;28;20111;-67
2022/04/24 09:16:49;;;;;;;1.80;0.73;;;;;;;;;;5033125;28;20052;-67
2022/04/24 09:19:22;;;;;;;3.13;0.70;;;;;;;;;;5042584;28;20037;-67
2022/04/24 09:21:49;;;;;;;0.85;0.50;;;;;;;;;;5038332;28;20052;-67
2022/04/24 09:24:16;;;;;;;0.63;0.60;;;;;;;;;;5038536;28;20029;-67
2022/04/24 09:26:52;;;;;;;1.13;0.93;;;;;;;;;;5034348;28;20036;-67
2022/04/24 09:29:18;;;;;;;1.75;1.20;;;;;;;;;;5033225;28;20029;-68
2022/04/24 09:31:48;;;;;;;1.13;0.70;;;;;;;;;;5034298;28;20497;-67
2022/04/24 09:34:17;;;;;;;1.60;0.85;;;;;;;;;;5044966;28;20033;-67
2022/04/24 09:36:43;;;;;;;4.45;1.02;;;;;;;;;;5038293;28;20378;-68
2022/04/24 09:39:09;;;;;;;2.65;1.25;;;;;;;;;;5040396;28;20128;-68
2022/04/24 09:41:36;;;;;;;5.55;1.40;;;;;;;;;;5041544;28;20526;-68
2022/04/24 09:44:13;;;;;;;3.95;1.20;;;;;;;;;;5032330;28;20081;-67
2022/04/24 09:46:38;;;;;;;3.78;1.00;;;;;;;;;;5037581;28;20026;-68
2022/04/24 09:49:08;;;;;;;4.20;0.80;;;;;;;;;;5034699;28;20108;-67
2022/04/24 09:51:41;;;;;;;0.60;0.60;;;;;;;;;;5034619;28;20393;-67
2022/04/24 09:54:07;;;;;;;1.15;1.00;;;;;;;;;;5036609;28;20048;-67
2022/04/24 09:56:33;;;;;;;1.20;0.95;;;;;;;;;;5036608;28;20024;-68
2022/04/24 09:58:59;;;;;;;1.85;0.70;;;;;;;;;;5033934;28;20546;-68
2022/04/24 10:01:27;;;;;;;1.73;1.00;;;;;;;;;;5042717;28;20040;-69
2022/04/24 10:03:53;;;;;;;2.67;0.90;;;;;;;;;;5038363;28;20041;-68
2022/04/24 10:06:22;;;;;;;2.85;1.13;;;;;;;;;;5044695;28;20081;-68
2022/04/24 10:08:50;;;;;;;2.63;0.90;;;;;;;;;;5037931;28;20131;-67
2022/04/24 10:11:17;;;;;;;3.05;0.82;;;;;;;;;;5035509;28;20024;-68
2022/04/24 10:13:46;;;;;;;5.40;0.95;;;;;;;;;;5037400;28;20032;-67
2022/04/24 10:16:32;;;;;;;3.50;1.25;;;;;;;;;;5037424;28;20442;-68
2022/04/24 10:19:33;;;;;;;3.13;0.80;;;;;;;;;;5043639;28;20112;-68
2022/04/24 10:22:16;;;;;;;3.35;0.90;;;;;;;;;;5036654;28;20029;-68
2022/04/24 10:24:43;;;;;;;2.13;0.70;;;;;;;;;;5040473;28;20033;-68
2022/04/24 10:27:11;;;;;;;1.58;0.40;;;;;;;;;;5036441;28;20052;-68
2022/04/24 10:30:00;;;;;;;0.52;0.40;;;;;;;;;;5034293;28;20494;-69
2022/04/24 10:32:33;;;;;;;0.50;0.40;;;;;;;;;;5038706;28;20126;-68
2022/04/24 10:35:00;;;;;;;1.08;0.40;;;;;;;;;;5032159;28;20028;-68
2022/04/24 10:37:30;;;;;;;0.57;0.20;;;;;;;;;;5033438;28;20037;-68
2022/04/24 10:39:58;;;;;;;1.35;0.40;;;;;;;;;;5036589;28;20033;-68
2022/04/24 10:42:34;;;;;;;1.65;0.68;;;;;;;;;;5072448;28;20436;-68
2022/04/24 10:45:20;;;;;;;0.40;0.40;;;;;;;;;;5040876;28;20036;-68
2022/04/24 10:47:49;;;;;;;1.05;0.40;;;;;;;;;;5038572;28;20033;-68
2022/04/24 10:50:18;;;;;;;1.35;0.52;;;;;;;;;;5034733;28;20034;-68
2022/04/24 10:52:46;;;;;;;0.95;0.50;;;;;;;;;;5037249;28;20029;-68
2022/04/24 10:55:13;;;;;;;1.13;0.68;;;;;;;;;;5037410;28;20041;-68
2022/04/24 10:57:44;;;;;;;2.72;0.35;;;;;;;;;;5036407;28;20112;-67
2022/04/24 11:00:16;;;;;;;0.25;0.22;;;;;;;;;;5039029;28;20052;-68
2022/04/24 11:02:43;;;;;;;0.38;0.38;;;;;;;;;;5042582;28;20098;-68
2022/04/24 11:05:10;;;;;;;0.82;0.30;;;;;;;;;;5037465;28;20040;-67
2022/04/24 11:07:36;;;;;;;3.42;0.70;;;;;;;;;;5033785;28;20036;-67
2022/04/24 11:10:09;;;;;;;4.05;0.50;;;;;;;;;;5040136;28;20157;-68
2022/04/24 11:12:35;;;;;;;;;;;;;;;;;;5043930;28;20029;-68
2022/04/24 11:15:09;;;;;;;1.33;0.25;;;;;;;;;;5039124;28;20007;-68
2022/04/24 11:17:35;;;;;;;0.50;0.50;;;;;;;;;;5032757;28;20017;-67
2022/04/24 11:20:09;;;;;;;0.32;0.32;;;;;;;;;;5036584;28;20025;-67
2022/04/24 11:22:55;;;;;;;0.82;0.50;;;;;;;;;;5034453;28;20417;-68
2022/04/24 11:25:23;;;;;;;3.22;0.40;;;;;;;;;;5037015;28;20026;-68
2022/04/24 11:27:51;;;;;;;1.45;0.50;;;;;;;;;;5035399;28;20026;-67
2022/04/24 11:30:21;;;;;;;3.45;0.43;;;;;;;;;;5038472;28;20041;-68
2022/04/24 11:32:57;;;;;;;1.10;1.00;;;;;;;;;;5035730;28;20497;-67
2022/04/24 11:35:25;;;;;;;1.20;1.10;;;;;;;;;;5034598;28;20037;-68
2022/04/24 11:37:51;;;;;;;1.65;0.70;;;;;;;;;;5036505;28;20040;-67
2022/04/24 11:40:17;;;;;;;10.77;2.10;;;;;;;;;;5041204;28;20087;-67
2022/04/24 11:42:43;;;;;;;3.25;2.90;;;;;;;;;;5035702;28;20474;-67
2022/04/24 11:50:49;;;;;;;2.70;1.40;;;;;;;;;;5040845;28;20412;-67
2022/04/24 11:53:15;;;;;;;1.40;1.20;;;;;;;;;;5038392;28;20709;-67
2022/04/24 11:58:25;;;;;;;1.88;1.05;;;;;;;;;;5042106;28;20021;-62
2022/04/24 12:00:51;;;;;;;4.57;1.23;;;;;;;;;;5035676;28;20099;-67
2022/04/24 12:03:17;;;;;;;1.45;1.23;;;;;;;;;;5041300;28;20107;-67
2022/04/24 12:05:43;;;;;;;2.58;1.40;;;;;;;;;;5039270;28;20044;-67
2022/04/24 12:08:11;;;;;;;1.92;1.40;;;;;;;;;;5040492;28;20065;-68
2022/04/24 12:10:42;;;;;;;2.05;1.90;;;;;;;;;;5036188;28;20539;-67
2022/04/24 12:13:09;;;;;;;2.58;2.30;;;;;;;;;;5041065;28;20499;-67
2022/04/24 12:15:35;;;;;;;2.10;1.90;;;;;;;;;;5046361;28;20498;-67
2022/04/24 12:18:01;;;;;;;2.50;2.30;;;;;;;;;;5036814;28;20067;-67
2022/04/24 12:20:36;;;;;;;2.60;2.40;;;;;;;;;;5067407;28;20041;-67
2022/04/24 12:23:11;;;;;;;3.08;2.75;;;;;;;;;;5035036;28;20119;-67
2022/04/24 12:25:55;;;;;;;3.60;2.20;;;;;;;;;;5036174;28;20036;-67
2022/04/24 12:28:31;;;;;;;3.20;2.85;;;;;;;;;;5041749;28;20090;-67
2022/04/24 12:30:58;;;;;;;5.53;2.20;;;;;;;;;;5041107;28;20041;-67
2022/04/24 12:33:25;;;;;;;4.65;2.55;;;;;;;;;;5035358;28;20068;-67
2022/04/24 12:35:51;;;;;;;4.68;2.70;;;;;;;;;;5039936;28;20031;-67
2022/04/24 12:38:18;;;;;;;2.38;2.22;;;;;;;;;;5035477;28;20043;-67
2022/04/24 12:40:57;;;;;;;2.47;1.92;;;;;;;;;;5034715;28;20041;-67
2022/04/24 12:43:25;;;;;;;5.47;2.10;;;;;;;;;;5057445;28;20608;-67
2022/04/24 12:45:51;;;;;;;3.00;2.67;;;;;;;;;;5038212;28;20062;-67
2022/04/24 12:48:17;;;;;;;2.40;2.20;;;;;;;;;;5036243;28;20096;-67
2022/04/24 12:50:43;;;;;;;2.17;1.70;;;;;;;;;;5036377;28;20041;-67
2022/04/24 12:53:09;;;;;;;2.05;1.45;;;;;;;;;;5041987;28;20086;-67
2022/04/24 12:55:35;;;;;;;5.28;1.45;;;;;;;;;;5044908;28;20037;-67
2022/04/24 12:58:01;;;;;;;4.47;1.17;;;;;;;;;;5035175;28;20655;-68
2022/04/24 13:00:28;;;;;;;1.42;1.30;;;;;;;;;;5037493;28;20879;-67
2022/04/24 13:02:53;;;;;;;1.23;1.13;;;;;;;;;;5043301;28;20052;-68
2022/04/24 13:05:19;;;;;;;1.70;1.15;;;;;;;;;;5037505;28;20028;-67
2022/04/24 13:07:45;;;;;;;5.18;1.23;;;;;;;;;;5040585;28;20037;-68
2022/04/24 13:10:11;;;;;;;0.80;0.73;;;;;;;;;;5040733;28;20500;-67
2022/04/24 13:12:37;;;;;;;7.00;1.60;;;;;;;;;;5041050;28;20040;-67
2022/04/24 13:15:03;;;;;;;2.50;1.00;;;;;;;;;;5036827;28;20021;-67
2022/04/24 13:20:13;;;;;;;1.23;0.50;;;;;;;;;;5038847;28;20032;-67
2022/04/24 13:22:40;;;;;;;3.20;0.80;;;;;;;;;;5032570;28;20030;-67
2022/04/24 13:25:06;;;;;;;1.27;0.50;;;;;;;;;;5037011;28;20112;-63
2022/04/24 13:27:32;;;;;;;0.85;0.60;;;;;;;;;;5039897;28;20261;-67
2022/04/24 13:29:57;;;;;;;1.80;0.60;;;;;;;;;;5041708;28;20041;-66
2022/04/24 13:32:25;;;;;;;0.55;0.50;;;;;;;;;;5038897;28;20056;-67
2022/04/24 13:34:51;;;;;;;2.10;0.70;;;;;;;;;;5033932;28;20144;-67
2022/04/24 13:40:01;;;;;;;1.67;0.90;;;;;;;;;;5038283;28;20073;-67
2022/04/24 13:42:28;;;;;;;2.42;0.80;;;;;;;;;;5037649;28;20107;-67
2022/04/24 13:44:54;;;;;;;3.50;0.50;;;;;;;;;;5039554;28;20119;-67
2022/04/24 13:47:20;;;;;;;2.42;0.75;;;;;;;;;;5037118;28;20056;-67
2022/04/24 13:49:46;;;;;;;1.77;0.52;;;;;;;;;;5037088;28;20028;-67
2022/04/24 13:52:12;;;;;;;1.67;0.85;;;;;;;;;;5034359;28;20397;-67
2022/04/24 13:54:39;;;;;;;2.58;0.45;;;;;;;;;;5038428;28;20045;-67
2022/04/24 13:57:05;;;;;;;1.77;0.70;;;;;;;;;;5037701;28;20097;-67
2022/04/24 13:59:30;;;;;;;2.58;1.02;;;;;;;;;;5034366;28;20131;-67
2022/04/24 14:01:58;;;;;;;0.90;0.55;;;;;;;;;;5031586;28;20494;-67
2022/04/24 14:04:24;;;;;;;1.50;0.70;;;;;;;;;;5039112;28;20052;-67
2022/04/24 14:06:50;;;;;;;1.27;1.05;;;;;;;;;;5040814;28;20807;-67
2022/04/24 14:09:16;;;;;;;3.40;1.08;;;;;;;;;;5037363;28;20892;-67
2022/04/24 14:11:43;;;;;;;2.97;1.48;;;;;;;;;;5035623;28;20033;-67
2022/04/24 14:14:10;;;;;;;1.00;0.82;;;;;;;;;;5033926;28;20060;-67
2022/04/24 14:16:36;;;;;;;3.47;1.17;;;;;;;;;;5034461;28;20413;-67
2022/04/24 14:19:01;;;;;;;1.25;0.80;;;;;;;;;;5035785;28;20033;-67
2022/04/24 14:21:27;;;;;;;3.15;0.77;;;;;;;;;;5032130;28;20129;-66
2022/04/24 14:23:53;;;;;;;0.60;0.52;;;;;;;;;;5038521;28;20028;-67
2022/04/24 14:26:18;;;;;;;0.60;0.50;;;;;;;;;;5035492;28;20507;-66
2022/04/24 14:28:44;;;;;;;2.05;0.68;;;;;;;;;;5040775;28;20056;-66
2022/04/24 14:31:10;;;;;;;0.70;0.50;;;;;;;;;;5068535;28;20108;-66
2022/04/24 14:33:36;;;;;;;3.10;0.60;;;;;;;;;;5036870;28;20044;-67
2022/04/24 14:36:01;;;;;;;0.68;0.30;;;;;;;;;;5038060;28;20021;-66
2022/04/24 14:38:28;;;;;;;11.65;1.42;;;;;;;;;;5033832;28;20039;-66
2022/04/24 14:40:54;;;;;;;1.38;0.50;;;;;;;;;;5036513;28;20037;-66
2022/04/24 14:43:20;;;;;;;0.57;0.40;;;;;;;;;;5042179;28;20071;-66
2022/04/24 14:56:44;;;;;;;0.30;0.30;;;;;;;;;;5040644;28;20094;-66
2022/04/24 14:59:09;;;;;;;0.70;0.70;;;;;;;;;;5033150;28;20478;-66
2022/04/24 15:01:35;;;;;;;1.63;0.80;;;;;;;;;;5036226;28;20037;-66
2022/04/24 15:04:02;;;;;;;0.85;0.75;;;;;;;;;;5038076;28;20088;-66
2022/04/24 15:06:28;;;;;;;4.00;1.00;;;;;;;;;;5036760;28;20059;-66
2022/04/24 15:08:53;;;;;;;0.90;0.90;;;;;;;;;;5037046;28;20065;-66